createdAt,value
2022-09-12T05:31:37.803Z,99.90
2022-09-12T05:34:40.227Z,99.90
2022-09-12T05:37:43.305Z,99.90
2022-09-12T05:40:45.018Z,99.90
2022-09-12T05:43:48.110Z,99.90
2022-09-12T05:46:51.290Z,99.90
2022-09-12T05:49:53.883Z,99.90
2022-09-12T05:52:57.025Z,99.90
2022-09-12T05:56:04.699Z,99.90
2022-09-12T05:59:12.076Z,99.90
2022-09-12T06:02:14.572Z,99.90
2022-09-12T06:05:16.432Z,99.90
2022-09-12T06:08:18.340Z,99.90
2022-09-12T06:11:23.279Z,99.90
2022-09-12T06:50:15.526Z,99.90
2022-09-12T06:53:17.413Z,99.90
2022-09-12T06:56:21.484Z,99.90
2022-09-12T06:59:28.361Z,99.90
2022-09-12T07:02:30.399Z,99.90
2022-09-12T07:05:34.227Z,99.90
2022-09-12T07:08:37.389Z,99.90
2022-09-12T07:11:40.713Z,99.90
2022-09-12T07:14:42.427Z,99.90
2022-09-12T07:17:44.265Z,99.90
2022-09-12T07:20:46.217Z,99.90
2022-09-12T07:23:48.497Z,99.90
2022-09-12T07:26:50.426Z,99.90
2022-09-12T07:29:52.118Z,99.90
2022-09-12T07:32:54.222Z,99.90
2022-09-12T07:36:03.807Z,99.90
2022-09-12T07:39:06.139Z,99.90
2022-09-12T07:42:07.952Z,99.90
2022-09-12T07:45:10.954Z,99.90
2022-09-12T07:48:12.664Z,99.90
2022-09-12T07:51:14.739Z,99.90
2022-09-12T07:54:17.305Z,99.90
2022-09-12T07:57:19.554Z,99.90
2022-09-12T08:00:22.041Z,99.90
2022-09-12T08:03:23.860Z,99.90
2022-09-12T08:06:27.971Z,99.90
2022-09-12T08:09:30.049Z,99.60
2022-09-12T08:12:32.341Z,99.60
2022-09-12T08:15:35.367Z,99.90
2022-09-12T08:18:37.505Z,99.90
2022-09-12T08:21:39.391Z,99.90
2022-09-12T08:24:41.112Z,99.90
2022-09-12T08:27:43.256Z,99.90
2022-09-12T08:30:46.325Z,99.00
2022-09-12T08:33:48.505Z,97.60
2022-09-12T08:36:51.024Z,98.90
2022-09-12T08:39:52.952Z,98.40
2022-09-12T08:43:07.537Z,98.60
2022-09-12T08:46:18.424Z,98.70
2022-09-12T08:49:34.936Z,98.60
2022-09-12T08:52:45.297Z,96.30
2022-09-12T08:55:56.250Z,95.70
2022-09-12T08:58:57.930Z,95.50
2022-09-12T09:02:03.502Z,95.70
2022-09-12T09:05:32.216Z,95.20
2022-09-12T09:08:49.217Z,94.20
2022-09-12T09:12:15.276Z,96.70
2022-09-12T09:15:42.107Z,94.40
2022-09-12T09:18:48.395Z,96.20
2022-09-12T09:21:57.792Z,94.40
2022-09-12T09:25:06.365Z,97.20
2022-09-12T09:28:16.364Z,94.90
2022-09-12T09:31:20.654Z,93.80
2022-09-12T09:34:25.633Z,94.40
2022-09-12T09:37:41.697Z,91.40
2022-09-12T09:41:01.577Z,92.60
2022-09-12T09:44:04.104Z,94.60
2022-09-12T09:47:06.068Z,94.80
2022-09-12T09:50:14.584Z,94.50
2022-09-12T09:53:37.588Z,93.40
2022-09-12T09:56:42.611Z,93.50
2022-09-12T09:59:44.950Z,93.10
2022-09-12T10:03:14.935Z,92.90
2022-09-12T10:06:20.621Z,92.10
2022-09-12T10:09:28.025Z,91.00
2022-09-12T10:12:29.760Z,92.40
2022-09-12T10:15:32.017Z,91.50
2022-09-12T10:18:41.657Z,93.60
2022-09-12T10:21:50.790Z,91.60
2022-09-12T10:24:55.075Z,90.90
2022-09-12T10:28:00.144Z,91.20
2022-09-12T10:31:02.995Z,92.10
2022-09-12T10:34:05.708Z,89.80
2022-09-12T10:37:10.523Z,88.10
2022-09-12T10:40:24.209Z,88.80
2022-09-12T10:43:27.651Z,89.00
2022-09-12T10:46:31.378Z,86.50
2022-09-12T10:49:40.060Z,86.40
2022-09-12T10:52:41.779Z,85.90
2022-09-12T10:56:08.949Z,87.90
2022-09-12T10:59:50.567Z,86.00
2022-09-12T11:03:20.196Z,84.10
2022-09-12T11:06:30.544Z,84.40
2022-09-12T11:10:13.109Z,84.10
2022-09-12T11:13:53.101Z,86.50
2022-09-12T11:17:13.269Z,84.50
2022-09-12T11:20:53.878Z,83.00
2022-09-12T11:24:35.447Z,78.30
2022-09-12T11:27:56.392Z,78.80
2022-09-12T11:31:37.459Z,78.20
2022-09-12T11:34:59.751Z,79.60
2022-09-12T11:38:31.673Z,79.60
2022-09-12T11:41:38.488Z,79.20
2022-09-12T11:44:44.153Z,81.30
2022-09-12T11:47:52.117Z,83.60
2022-09-12T11:50:54.553Z,85.40
2022-09-12T11:54:06.711Z,88.80
2022-09-12T11:57:38.740Z,84.30
2022-09-12T12:00:47.079Z,84.60
2022-09-12T12:03:49.516Z,82.50
2022-09-12T12:07:06.116Z,86.20
2022-09-12T12:10:22.469Z,89.50
2022-09-12T12:13:33.836Z,87.40
2022-09-12T12:16:38.873Z,90.00
2022-09-12T12:19:40.765Z,90.00
2022-09-12T12:22:53.171Z,89.80
2022-09-12T12:25:57.875Z,91.20
2022-09-12T12:29:01.000Z,88.60
2022-09-12T12:32:02.841Z,89.20
2022-09-12T12:35:41.319Z,90.40
2022-09-12T12:38:43.121Z,90.40
2022-09-12T12:41:45.997Z,89.70
2022-09-12T12:44:51.371Z,90.90
2022-09-12T12:48:04.078Z,91.30
2022-09-12T12:51:32.616Z,90.80
2022-09-12T12:54:41.918Z,91.10
2022-09-12T12:57:53.323Z,90.80
2022-09-12T13:01:13.165Z,85.50
2022-09-12T13:04:19.274Z,87.80
2022-09-12T13:07:29.855Z,87.30
2022-09-12T13:10:31.817Z,86.50
2022-09-12T13:13:43.795Z,86.70
2022-09-12T13:17:04.075Z,84.60
2022-09-12T13:20:29.607Z,82.70
2022-09-12T13:23:32.702Z,82.40
2022-09-12T13:26:40.945Z,80.10
2022-09-12T13:29:42.655Z,81.50
2022-09-12T13:32:44.555Z,82.50
2022-09-12T13:36:00.950Z,80.50
2022-09-12T13:39:27.683Z,81.50
2022-09-12T13:42:49.602Z,83.40
2022-09-12T13:45:52.982Z,81.20
2022-09-12T13:48:54.712Z,80.20
2022-09-12T13:52:07.201Z,82.10
2022-09-12T13:55:25.347Z,82.50
2022-09-12T13:58:30.794Z,84.10
2022-09-12T14:01:48.544Z,81.60
2022-09-12T14:05:10.229Z,81.30
2022-09-12T14:08:15.264Z,81.10
2022-09-12T14:11:26.882Z,82.10
2022-09-12T14:14:36.025Z,83.20
2022-09-12T14:17:39.630Z,81.60
2022-09-12T14:20:41.963Z,83.20
2022-09-12T14:23:48.040Z,82.00
2022-09-12T14:26:54.174Z,81.80
2022-09-12T14:30:06.825Z,80.00
2022-09-12T14:33:12.799Z,82.80
2022-09-12T14:36:35.846Z,81.50
2022-09-12T14:39:41.509Z,82.40
2022-09-12T14:42:43.356Z,82.70
2022-09-12T14:45:54.035Z,80.00
2022-09-12T14:49:07.979Z,79.60
2022-09-12T14:52:29.789Z,79.10
2022-09-12T14:55:34.015Z,78.80
2022-09-12T14:58:36.717Z,80.50
2022-09-12T15:01:38.669Z,80.70
2022-09-12T15:04:42.444Z,81.80
2022-09-12T15:07:53.650Z,82.80
2022-09-12T15:10:55.793Z,82.70
2022-09-12T15:13:57.605Z,83.40
2022-09-12T15:16:59.258Z,82.40
2022-09-12T15:20:00.969Z,82.90
2022-09-12T15:23:03.158Z,84.00
2022-09-12T15:26:05.123Z,84.50
2022-09-12T15:29:06.875Z,82.80
2022-09-12T15:32:15.006Z,83.00
2022-09-12T15:35:19.108Z,82.50
2022-09-12T15:38:25.785Z,82.40
2022-09-12T15:41:37.476Z,83.00
2022-09-12T15:44:39.755Z,83.80
2022-09-12T15:47:41.596Z,84.00
2022-09-12T15:50:43.260Z,82.70
2022-09-12T15:53:46.092Z,82.10
2022-09-12T15:56:47.750Z,83.40
2022-09-12T15:59:49.594Z,83.70
